Iraola, Argentina
Current Conditions -  °F | °C
As of 11:00 PM on Saturday 25 Oct 2014 (Local Time) from SAZM Reporting Station
Thunderstorm Thunderstorm  
Wind Chill: 64°   Ceiling: Unl
Heat Index: 64°   Visibility: 4mi
Dew Point: 63°   Wind: 6mph
Humidity: 94%   Direction: 50°NE
Pressure: 29.85"   Gusts: NA
Location:  37.25°S, 58.92°W
Report Text: SAZM 260200Z 05005KT 7000 TS FEW025FEW050CB 18/17 Q1011
Loading
Personal Weather Stations






























Interactive Weather Map New forecast layout! Learn more

10-Day Weather Forecast

Advertisements
Track Severe Weather on mobile